createdAt,value
2023-04-15T00:01:03.994Z,86.75
2023-04-15T00:04:06.836Z,86.75
2023-04-15T00:07:09.276Z,86.75
2023-04-15T00:10:11.641Z,86.64
2023-04-15T00:13:14.105Z,86.10
2023-04-15T00:16:18.385Z,86.64
2023-04-15T00:19:21.213Z,87.31
2023-04-15T00:22:23.760Z,87.20
2023-04-15T00:25:26.386Z,86.31
2023-04-15T00:28:31.062Z,86.95
2023-04-15T00:31:34.372Z,87.19
2023-04-15T00:34:37.314Z,86.97
2023-04-15T00:37:39.763Z,86.97
2023-04-15T00:40:43.625Z,86.92
2023-04-15T00:43:46.055Z,86.64
2023-04-15T00:46:50.859Z,86.56
2023-04-15T00:49:53.540Z,87.26
2023-04-15T00:52:56.195Z,87.42
2023-04-15T00:55:58.646Z,87.90
2023-04-15T00:59:02.387Z,87.89
2023-04-15T01:02:05.777Z,87.62
2023-04-15T01:05:08.622Z,87.24
2023-04-15T01:08:11.017Z,87.28
2023-04-15T01:11:13.843Z,87.17
2023-04-15T01:14:16.361Z,87.05
2023-04-15T01:17:19.167Z,87.17
2023-04-15T01:20:22.249Z,87.21
2023-04-15T01:23:24.905Z,87.13
2023-04-15T01:26:27.593Z,87.01
2023-04-15T01:29:32.875Z,87.54
2023-04-15T01:32:37.008Z,86.97
2023-04-15T01:35:39.850Z,87.09
2023-04-15T01:38:42.387Z,86.76
2023-04-15T01:41:45.479Z,86.51
2023-04-15T01:44:47.988Z,86.79
2023-04-15T01:47:51.099Z,87.03
2023-04-15T01:50:57.254Z,87.01
2023-04-15T01:53:59.712Z,86.47
2023-04-15T01:57:02.359Z,87.17
2023-04-15T02:00:07.797Z,86.54
2023-04-15T02:03:19.374Z,87.01
2023-04-15T02:06:21.894Z,86.42
2023-04-15T02:09:24.315Z,86.78
2023-04-15T02:12:27.300Z,86.28
2023-04-15T02:15:29.856Z,86.54
2023-04-15T02:18:32.785Z,86.72
2023-04-15T02:21:35.530Z,86.42
2023-04-15T02:24:38.341Z,86.43
2023-04-15T02:27:40.792Z,86.42
2023-04-15T02:30:43.576Z,86.67
2023-04-15T02:33:46.674Z,86.58
2023-04-15T02:36:49.770Z,86.08
2023-04-15T02:39:52.364Z,86.32
2023-04-15T02:42:55.170Z,85.94
2023-04-15T02:45:57.747Z,86.44
2023-04-15T02:49:00.689Z,86.74
2023-04-15T02:52:03.494Z,86.84
2023-04-15T02:55:06.675Z,86.44
2023-04-15T02:58:09.090Z,86.28
2023-04-15T03:01:11.861Z,85.66
2023-04-15T03:04:15.984Z,85.46
2023-04-15T03:07:18.886Z,86.82
2023-04-15T03:10:22.178Z,86.66
2023-04-15T03:13:24.961Z,86.53
2023-04-15T03:16:28.956Z,86.86
2023-04-15T03:19:31.958Z,87.30
2023-04-15T03:22:35.217Z,87.65
2023-04-15T03:25:38.845Z,87.59
2023-04-15T03:28:42.873Z,87.64
2023-04-15T03:31:45.622Z,88.29
2023-04-15T03:34:48.060Z,88.60
2023-04-15T03:37:50.999Z,88.31
2023-04-15T03:40:53.464Z,87.92
2023-04-15T03:43:57.243Z,88.41
2023-04-15T03:46:59.838Z,88.36
2023-04-15T03:50:02.261Z,88.00
2023-04-15T03:53:04.779Z,87.77
2023-04-15T03:56:07.467Z,87.36
2023-04-15T03:59:10.032Z,87.62
2023-04-15T04:02:12.511Z,87.77
2023-04-15T04:05:15.043Z,87.74
2023-04-15T04:08:19.554Z,87.21
2023-04-15T04:11:22.106Z,86.99
2023-04-15T04:14:29.481Z,87.09
2023-04-15T04:17:31.868Z,87.68
2023-04-15T04:20:35.368Z,86.83
2023-04-15T04:23:37.884Z,87.14
2023-04-15T04:26:40.656Z,86.86
2023-04-15T04:29:43.429Z,87.22
2023-04-15T04:32:46.052Z,87.06
2023-04-15T04:35:48.653Z,87.02
2023-04-15T04:38:51.375Z,87.07
2023-04-15T04:41:54.343Z,87.26
2023-04-15T04:44:56.892Z,87.23
2023-04-15T04:47:59.437Z,87.31
2023-04-15T04:51:02.188Z,86.59
2023-04-15T04:54:05.027Z,86.32
2023-04-15T04:57:08.153Z,85.28
2023-04-15T05:00:11.272Z,83.92
2023-04-15T05:03:14.746Z,84.22
2023-04-15T05:06:17.260Z,84.13
2023-04-15T05:09:20.168Z,84.08
2023-04-15T05:12:22.707Z,82.86
2023-04-15T05:15:25.453Z,82.75
2023-04-15T05:18:27.898Z,83.00
2023-04-15T05:21:31.287Z,81.77
2023-04-15T05:24:33.810Z,81.22
2023-04-15T05:27:36.761Z,80.16
2023-04-15T05:30:39.609Z,80.18
2023-04-15T05:33:43.014Z,80.64
2023-04-15T05:36:45.437Z,80.51
2023-04-15T05:39:48.638Z,79.68
2023-04-15T05:42:51.490Z,79.04
2023-04-15T05:45:54.045Z,78.77
2023-04-15T05:48:56.883Z,78.38
2023-04-15T05:51:59.446Z,77.14
2023-04-15T05:55:02.070Z,77.19
2023-04-15T05:58:04.620Z,77.21
2023-04-15T06:01:07.294Z,78.39
2023-04-15T06:04:10.740Z,78.42
2023-04-15T06:07:13.157Z,78.68
2023-04-15T06:10:16.024Z,77.88
2023-04-15T06:13:18.746Z,78.96
2023-04-15T06:16:21.393Z,78.02
2023-04-15T06:19:24.822Z,76.23
2023-04-15T06:22:27.275Z,77.42
2023-04-15T06:25:29.727Z,78.27
2023-04-15T06:28:32.408Z,78.21
2023-04-15T06:31:35.069Z,78.33
2023-04-15T06:34:37.518Z,77.89
2023-04-15T06:37:39.904Z,76.85
2023-04-15T06:40:42.914Z,77.06
2023-04-15T06:43:45.338Z,77.54
2023-04-15T06:46:47.789Z,76.76
2023-04-15T06:49:50.378Z,76.36
2023-04-15T06:52:54.256Z,76.20
2023-04-15T06:55:57.158Z,74.94
2023-04-15T06:58:59.859Z,74.48
2023-04-15T07:02:02.651Z,73.61
2023-04-15T07:05:07.015Z,74.05
2023-04-15T07:08:09.472Z,74.00
2023-04-15T07:11:12.321Z,73.76
2023-04-15T07:14:14.893Z,73.05
2023-04-15T07:17:17.742Z,73.03
2023-04-15T07:20:20.270Z,71.63
2023-04-15T07:23:23.311Z,69.77
2023-04-15T07:26:25.843Z,70.40
2023-04-15T07:29:28.475Z,70.38
2023-04-15T07:32:31.173Z,70.62
2023-04-15T07:35:34.423Z,69.46
2023-04-15T07:38:37.114Z,70.24
2023-04-15T07:41:39.890Z,70.36
2023-04-15T07:44:42.811Z,69.74
2023-04-15T07:47:45.457Z,69.34
2023-04-15T07:50:49.156Z,69.48
2023-04-15T07:53:51.904Z,69.91
2023-04-15T07:56:54.410Z,69.39
2023-04-15T07:59:56.814Z,68.58
2023-04-15T08:02:59.906Z,67.58
2023-04-15T08:06:02.499Z,67.63
2023-04-15T08:09:05.016Z,67.51
2023-04-15T08:12:09.513Z,65.75
2023-04-15T08:15:13.168Z,65.74
2023-04-15T08:18:15.751Z,65.55
2023-04-15T08:21:20.331Z,64.11
2023-04-15T08:24:26.237Z,63.39
2023-04-15T08:27:28.707Z,62.54
2023-04-15T08:30:31.192Z,61.95
2023-04-15T08:33:33.724Z,62.51
2023-04-15T08:36:36.169Z,61.09
2023-04-15T08:39:38.773Z,60.05
2023-04-15T08:42:47.150Z,58.13
2023-04-15T08:45:51.807Z,57.15
2023-04-15T08:48:57.889Z,55.78
2023-04-15T08:52:00.795Z,54.90
2023-04-15T08:55:04.929Z,54.30
2023-04-15T08:58:07.913Z,54.90
2023-04-15T09:01:15.338Z,54.76
2023-04-15T09:04:18.302Z,54.10
2023-04-15T09:07:20.881Z,53.81
2023-04-15T09:10:23.759Z,55.23
2023-04-15T09:13:26.677Z,57.18
2023-04-15T09:16:29.547Z,57.63
2023-04-15T09:19:34.438Z,56.08
2023-04-15T09:22:38.025Z,56.17
2023-04-15T09:25:44.504Z,54.54
2023-04-15T09:28:47.521Z,55.96
2023-04-15T09:31:50.777Z,53.37
2023-04-15T09:34:53.781Z,51.80
2023-04-15T09:38:07.514Z,52.64
2023-04-15T09:41:19.774Z,53.83
2023-04-15T09:44:26.482Z,52.18
2023-04-15T09:47:31.338Z,51.20
2023-04-15T09:50:41.472Z,51.86
2023-04-15T09:53:43.926Z,52.27
2023-04-15T09:56:47.171Z,51.31
2023-04-15T09:59:51.093Z,50.74
2023-04-15T10:02:53.776Z,51.23
2023-04-15T10:05:58.690Z,51.71
2023-04-15T10:09:01.874Z,52.80
2023-04-15T10:12:05.747Z,53.06
2023-04-15T10:15:14.790Z,53.03
2023-04-15T10:18:20.574Z,54.53
2023-04-15T10:21:23.770Z,52.89
2023-04-15T10:24:27.889Z,52.03
2023-04-15T10:27:31.127Z,49.09
2023-04-15T10:30:34.396Z,48.75
2023-04-15T10:33:38.802Z,51.44
2023-04-15T10:36:41.624Z,52.24
2023-04-15T10:39:44.544Z,51.78
2023-04-15T10:42:47.399Z,49.93
2023-04-15T10:45:49.992Z,53.13
2023-04-15T10:48:54.056Z,55.27
2023-04-15T10:51:59.844Z,56.57
2023-04-15T10:55:11.218Z,57.91
2023-04-15T10:58:15.103Z,57.54
2023-04-15T11:01:20.107Z,52.60
2023-04-15T11:04:58.379Z,50.84
2023-04-15T11:08:00.841Z,54.45
2023-04-15T11:11:03.389Z,56.22
2023-04-15T11:14:05.954Z,53.46
2023-04-15T11:17:08.412Z,49.51
2023-04-15T11:20:16.061Z,50.29
2023-04-15T11:23:20.156Z,53.54
2023-04-15T11:26:27.235Z,56.27
2023-04-15T11:29:32.084Z,58.42
2023-04-15T11:32:35.331Z,60.11
2023-04-15T11:35:38.514Z,61.35
2023-04-15T11:38:45.280Z,60.76
2023-04-15T11:41:47.860Z,59.54
2023-04-15T11:44:51.629Z,62.80
2023-04-15T11:47:54.175Z,54.75
2023-04-15T11:50:58.856Z,51.59
2023-04-15T11:54:01.592Z,54.60
2023-04-15T11:57:04.336Z,53.63
2023-04-15T12:00:07.882Z,51.93
2023-04-15T12:03:20.113Z,53.46
2023-04-15T12:06:24.943Z,53.52
2023-04-15T12:09:28.215Z,49.66
2023-04-15T12:12:30.979Z,46.57
2023-04-15T12:15:33.462Z,50.48
2023-04-15T12:18:38.911Z,49.12
2023-04-15T12:21:44.740Z,48.45
2023-04-15T12:24:48.805Z,50.66
2023-04-15T12:27:52.772Z,47.16
2023-04-15T12:30:55.422Z,44.99
2023-04-15T12:33:59.594Z,46.31
2023-04-15T12:37:05.277Z,44.76
2023-04-15T12:40:08.782Z,44.91
2023-04-15T12:43:11.612Z,49.28
2023-04-15T12:46:14.037Z,48.54
2023-04-15T12:49:19.470Z,51.78
2023-04-15T12:52:22.105Z,52.99
2023-04-15T12:55:24.530Z,54.36
2023-04-15T12:58:27.557Z,55.19
2023-04-15T13:01:30.545Z,55.79
2023-04-15T13:04:33.338Z,56.95
2023-04-15T13:07:35.967Z,57.58
2023-04-15T13:10:38.612Z,58.61
2023-04-15T13:13:41.445Z,58.05
2023-04-15T13:16:44.267Z,57.53
2023-04-15T13:19:46.707Z,56.68
2023-04-15T13:22:49.251Z,56.11
2023-04-15T13:25:52.153Z,55.27
2023-04-15T13:28:54.763Z,54.17
2023-04-15T13:31:57.274Z,48.22
2023-04-15T13:35:00.011Z,44.13
2023-04-15T13:38:02.454Z,49.62
2023-04-15T13:41:05.055Z,52.36
2023-04-15T13:44:07.952Z,52.69
2023-04-15T13:47:11.084Z,53.60
2023-04-15T13:50:13.599Z,54.33
2023-04-15T13:53:16.456Z,54.28
2023-04-15T13:56:18.940Z,53.65
2023-04-15T13:59:22.484Z,53.48
2023-04-15T14:02:24.925Z,54.42
2023-04-15T14:05:27.599Z,55.66
2023-04-15T14:08:30.842Z,56.93
2023-04-15T14:11:35.410Z,56.98
2023-04-15T14:14:38.046Z,57.28
2023-04-15T14:17:42.492Z,58.62
2023-04-15T14:20:45.110Z,57.67
2023-04-15T14:23:47.784Z,57.71
2023-04-15T14:26:50.395Z,58.07
2023-04-15T14:29:54.204Z,59.41
2023-04-15T14:32:56.713Z,58.80
2023-04-15T14:35:59.337Z,59.50
2023-04-15T14:39:01.834Z,59.75
2023-04-15T14:42:04.330Z,60.00
2023-04-15T14:45:07.478Z,59.96
2023-04-15T14:48:10.173Z,60.70
2023-04-15T14:51:12.704Z,60.97
2023-04-15T14:54:15.556Z,60.78
2023-04-15T14:57:18.149Z,60.27
2023-04-15T15:00:20.667Z,60.33
2023-04-15T15:03:23.987Z,60.09
2023-04-15T15:06:26.704Z,61.31
2023-04-15T15:09:29.934Z,60.51
2023-04-15T15:12:33.431Z,60.55
2023-04-15T15:15:37.468Z,60.96
2023-04-15T15:18:40.598Z,60.60
2023-04-15T15:21:43.242Z,60.89
2023-04-15T15:24:46.351Z,61.42
2023-04-15T15:27:49.095Z,61.60
2023-04-15T15:30:51.628Z,61.73
2023-04-15T15:33:54.119Z,61.83
2023-04-15T15:36:57.639Z,62.44
2023-04-15T15:40:00.928Z,62.71
2023-04-15T15:43:04.314Z,63.07
2023-04-15T15:46:06.899Z,63.23
2023-04-15T15:49:09.487Z,62.78
2023-04-15T15:52:12.778Z,63.10
2023-04-15T15:55:15.216Z,63.15
2023-04-15T15:58:17.708Z,63.14
2023-04-15T16:01:20.494Z,63.07
2023-04-15T16:04:23.410Z,62.68
2023-04-15T16:07:26.191Z,62.82
2023-04-15T16:10:28.913Z,65.17
2023-04-15T16:13:31.405Z,68.41
2023-04-15T16:16:33.909Z,68.88
2023-04-15T16:19:37.149Z,69.85
2023-04-15T16:22:39.801Z,71.04
2023-04-15T16:25:43.763Z,71.41
2023-04-15T16:28:46.602Z,72.35
2023-04-15T16:31:49.414Z,71.66
2023-04-15T16:34:53.017Z,71.11
2023-04-15T16:37:55.735Z,71.47
2023-04-15T16:40:59.752Z,72.36
2023-04-15T16:44:03.359Z,73.50
2023-04-15T16:47:06.148Z,75.57
2023-04-15T16:50:09.507Z,74.04
2023-04-15T16:53:12.348Z,75.71
2023-04-15T16:56:14.990Z,75.83
2023-04-15T16:59:17.766Z,77.00
2023-04-15T17:02:21.437Z,76.59
2023-04-15T17:05:24.002Z,77.26
2023-04-15T17:08:26.841Z,77.60
2023-04-15T17:11:29.366Z,77.99
2023-04-15T17:14:33.250Z,79.69
2023-04-15T17:17:36.072Z,79.57
2023-04-15T17:20:39.655Z,78.96
2023-04-15T17:23:42.185Z,79.99
2023-04-15T17:26:44.774Z,80.65
2023-04-15T17:29:47.377Z,81.13
2023-04-15T17:32:51.833Z,81.31
2023-04-15T17:35:54.385Z,81.67
2023-04-15T17:38:57.160Z,81.44
2023-04-15T17:41:59.852Z,81.25
2023-04-15T17:45:02.488Z,82.32
2023-04-15T17:48:06.357Z,82.21
2023-04-15T17:51:09.150Z,82.78
2023-04-15T17:54:11.730Z,83.40
2023-04-15T17:57:14.793Z,83.54
2023-04-15T18:00:18.074Z,82.93
2023-04-15T18:03:20.784Z,84.03
2023-04-15T18:06:23.609Z,83.85
2023-04-15T18:09:28.021Z,83.93
2023-04-15T18:12:31.192Z,84.44
2023-04-15T18:15:34.772Z,84.91
2023-04-15T18:18:37.475Z,85.74
2023-04-15T18:21:40.072Z,86.05
2023-04-15T18:24:42.815Z,86.29
2023-04-15T18:27:45.735Z,86.68
2023-04-15T18:30:48.316Z,86.78
2023-04-15T18:33:51.185Z,86.76
2023-04-15T18:36:55.492Z,86.57
2023-04-15T18:39:58.630Z,86.88
2023-04-15T18:43:01.457Z,87.08
2023-04-15T18:46:08.422Z,86.65
2023-04-15T18:49:14.038Z,87.25
2023-04-15T18:52:16.655Z,86.88
2023-04-15T18:55:19.862Z,86.80
2023-04-15T18:58:22.461Z,87.13
2023-04-15T19:01:25.168Z,86.80
2023-04-15T19:04:29.339Z,87.03
2023-04-15T19:07:33.108Z,87.11
2023-04-15T19:10:35.706Z,87.51
2023-04-15T19:13:38.438Z,87.80
2023-04-15T19:16:41.387Z,87.71
2023-04-15T19:19:44.164Z,87.79
2023-04-15T19:22:47.395Z,87.90
2023-04-15T19:25:50.515Z,89.01
2023-04-15T19:28:53.962Z,89.21
2023-04-15T19:31:56.690Z,88.83
2023-04-15T19:35:00.343Z,88.10
2023-04-15T19:38:03.260Z,88.38
2023-04-15T19:41:06.266Z,88.61
2023-04-15T19:44:08.741Z,88.94
2023-04-15T19:47:13.135Z,88.87
2023-04-15T19:50:17.154Z,89.20
2023-04-15T19:53:20.502Z,89.87
2023-04-15T19:56:24.082Z,90.03
2023-04-15T19:59:26.938Z,90.01
2023-04-15T20:02:30.265Z,89.43
2023-04-15T20:05:33.364Z,89.44
2023-04-15T20:08:36.011Z,89.38
2023-04-15T20:12:06.130Z,89.29
2023-04-15T20:15:02.431Z,89.13
2023-04-15T20:18:06.198Z,88.79
2023-04-15T20:21:08.899Z,87.93
2023-04-15T20:24:11.825Z,87.87
2023-04-15T20:27:15.182Z,87.98
2023-04-15T20:30:18.061Z,88.10
2023-04-15T20:33:22.296Z,88.26
2023-04-15T20:36:24.777Z,88.30
2023-04-15T20:39:27.272Z,88.28
2023-04-15T20:42:36.678Z,88.58
2023-04-15T20:45:39.589Z,88.38
2023-04-15T20:48:41.997Z,88.50
2023-04-15T20:51:44.765Z,88.53
2023-04-15T20:54:47.425Z,88.85
2023-04-15T20:57:49.953Z,89.33
2023-04-15T21:00:54.801Z,89.12
2023-04-15T21:03:58.965Z,89.23
2023-04-15T21:07:01.403Z,88.85
2023-04-15T21:10:04.285Z,88.34
2023-04-15T21:13:07.888Z,88.89
2023-04-15T21:16:10.558Z,88.58
2023-04-15T21:19:13.024Z,88.54
2023-04-15T21:22:15.750Z,88.34
2023-04-15T21:25:18.734Z,88.35
2023-04-15T21:28:21.915Z,88.75
2023-04-15T21:31:24.402Z,88.83
2023-04-15T21:34:26.856Z,89.02
2023-04-15T21:37:29.345Z,89.39
2023-04-15T21:40:31.855Z,89.29
2023-04-15T21:43:34.572Z,89.59
2023-04-15T21:46:37.219Z,89.19
2023-04-15T21:49:42.073Z,89.24
2023-04-15T21:52:45.191Z,89.46
2023-04-15T21:55:48.154Z,89.33
2023-04-15T21:58:51.290Z,89.53
2023-04-15T22:01:53.990Z,89.59
2023-04-15T22:04:56.716Z,89.60
2023-04-15T22:08:02.041Z,89.68
2023-04-15T22:11:04.782Z,89.85
2023-04-15T22:14:07.296Z,89.67
2023-04-15T22:17:09.720Z,89.81
2023-04-15T22:20:13.420Z,89.66
2023-04-15T22:23:17.538Z,89.62
2023-04-15T22:26:20.341Z,89.82
2023-04-15T22:29:23.026Z,89.67
2023-04-15T22:32:25.527Z,89.31
2023-04-15T22:35:27.988Z,89.33
2023-04-15T22:38:31.047Z,89.58
2023-04-15T22:41:33.473Z,89.83
2023-04-15T22:44:35.899Z,89.75
2023-04-15T22:47:38.379Z,89.61
2023-04-15T22:50:41.121Z,90.00
2023-04-15T22:53:43.567Z,89.74
2023-04-15T22:56:46.218Z,89.78
2023-04-15T22:59:48.774Z,90.06
2023-04-15T23:02:51.312Z,89.79
2023-04-15T23:05:53.916Z,89.75
2023-04-15T23:08:56.465Z,89.85
2023-04-15T23:11:58.998Z,89.97
2023-04-15T23:15:01.622Z,90.20
2023-04-15T23:18:05.155Z,90.43
2023-04-15T23:21:07.710Z,90.46
2023-04-15T23:24:10.363Z,90.78
2023-04-15T23:27:12.717Z,90.61
2023-04-15T23:30:15.372Z,90.66
2023-04-15T23:33:17.919Z,90.25
2023-04-15T23:36:21.129Z,89.98
2023-04-15T23:39:23.690Z,89.87
2023-04-15T23:42:26.411Z,90.03
2023-04-15T23:45:28.967Z,89.94
2023-04-15T23:48:31.712Z,89.93
2023-04-15T23:51:34.104Z,89.78
2023-04-15T23:54:37.498Z,89.32
2023-04-15T23:57:41.219Z,89.53
